createdAt,value
2018-12-14T00:01:40.485Z,-0.13
2018-12-14T00:04:09.310Z,-0.06
2018-12-14T00:06:38.176Z,-0.09
2018-12-14T00:09:07.207Z,-0.07
2018-12-14T00:11:36.024Z,-0.10
2018-12-14T00:14:04.879Z,-0.18
2018-12-14T00:16:33.705Z,-0.17
2018-12-14T00:19:02.525Z,-0.22
2018-12-14T00:21:31.932Z,-0.24
2018-12-14T00:24:00.764Z,-0.19
2018-12-14T00:26:29.613Z,-0.27
2018-12-14T00:28:59.692Z,-0.28
2018-12-14T00:31:28.589Z,-0.28
2018-12-14T00:33:57.410Z,-0.33
2018-12-14T00:36:27.610Z,-0.45
2018-12-14T00:38:56.430Z,-0.38
2018-12-14T00:41:25.249Z,-0.31
2018-12-14T00:43:54.125Z,-0.20
2018-12-14T00:46:22.961Z,-0.06
2018-12-14T00:48:51.793Z,0.03
2018-12-14T00:51:20.793Z,0.09
2018-12-14T00:53:49.609Z,0.06
2018-12-14T00:56:18.446Z,0.06
2018-12-14T00:58:47.312Z,0.08
2018-12-14T01:01:16.130Z,0.15
2018-12-14T01:03:45.018Z,0.28
2018-12-14T01:06:13.822Z,0.26
2018-12-14T01:08:42.793Z,0.17
2018-12-14T01:11:11.665Z,-0.06
2018-12-14T01:13:40.532Z,-0.06
2018-12-14T01:16:09.360Z,-0.17
2018-12-14T01:18:38.405Z,-0.25
2018-12-14T01:21:07.226Z,-0.29
2018-12-14T01:23:36.273Z,-0.45
2018-12-14T01:26:05.166Z,-0.45
2018-12-14T01:28:33.988Z,-0.38
2018-12-14T01:31:02.836Z,-0.44
2018-12-14T01:33:31.702Z,-0.27
2018-12-14T01:36:00.529Z,-0.10
2018-12-14T01:38:29.637Z,0.00
2018-12-14T01:40:58.620Z,0.43
2018-12-14T01:43:27.445Z,0.72
2018-12-14T01:45:56.331Z,0.63
2018-12-14T01:48:25.148Z,0.64
2018-12-14T01:50:54.041Z,0.78
2018-12-14T01:53:23.044Z,0.87
2018-12-14T01:55:51.907Z,0.92
2018-12-14T01:58:22.101Z,0.92
2018-12-14T02:00:50.961Z,0.89
2018-12-14T02:03:19.817Z,1.02
2018-12-14T02:05:48.634Z,1.06
2018-12-14T02:08:17.502Z,1.24
2018-12-14T02:10:46.333Z,1.43
2018-12-14T02:13:15.205Z,1.46
2018-12-14T02:15:44.039Z,1.55
2018-12-14T02:18:12.864Z,1.65
2018-12-14T02:20:41.729Z,1.70
2018-12-14T02:23:10.533Z,1.62
2018-12-14T02:25:39.336Z,1.59
2018-12-14T02:28:08.254Z,1.71
2018-12-14T02:30:44.283Z,1.76
2018-12-14T02:33:13.191Z,1.73
2018-12-14T02:35:42.026Z,1.54
2018-12-14T02:38:10.867Z,1.37
2018-12-14T02:40:39.744Z,1.33
2018-12-14T02:43:08.599Z,1.34
2018-12-14T02:45:37.450Z,1.26
2018-12-14T02:48:06.289Z,1.25
2018-12-14T02:50:35.126Z,1.29
2018-12-14T02:53:05.028Z,1.46
2018-12-14T02:55:33.989Z,1.11
2018-12-14T02:58:02.940Z,1.30
2018-12-14T03:00:31.789Z,1.53
2018-12-14T03:03:00.737Z,1.73
2018-12-14T03:05:29.593Z,1.83
2018-12-14T03:07:58.432Z,1.83
2018-12-14T03:10:28.501Z,1.44
2018-12-14T03:12:57.386Z,1.26
2018-12-14T03:15:26.222Z,1.26
2018-12-14T03:17:55.061Z,0.98
2018-12-14T03:20:23.989Z,1.13
2018-12-14T03:22:52.818Z,1.31
2018-12-14T03:25:21.807Z,1.56
2018-12-14T03:27:50.674Z,1.68
2018-12-14T03:30:19.556Z,1.73
2018-12-14T03:32:48.507Z,1.54
2018-12-14T03:35:17.384Z,1.42
2018-12-14T03:37:46.233Z,1.41
2018-12-14T03:40:15.148Z,1.20
2018-12-14T03:42:44.116Z,1.14
2018-12-14T03:45:12.997Z,1.18
2018-12-14T03:47:41.837Z,1.01
2018-12-14T03:50:10.807Z,1.05
2018-12-14T03:52:39.706Z,1.11
2018-12-14T03:55:08.686Z,1.15
2018-12-14T03:57:37.560Z,1.32
2018-12-14T04:00:09.896Z,1.28
2018-12-14T04:02:38.848Z,1.39
2018-12-14T04:05:07.893Z,1.47
2018-12-14T04:07:36.798Z,1.53
2018-12-14T04:10:06.737Z,1.67
2018-12-14T04:12:41.567Z,1.54
2018-12-14T04:15:06.600Z,1.66
2018-12-14T04:17:35.464Z,1.86
2018-12-14T04:20:04.958Z,1.91
2018-12-14T04:22:33.909Z,0.97
2018-12-14T04:25:02.774Z,0.60
2018-12-14T04:27:31.620Z,0.48
2018-12-14T04:30:01.756Z,0.74
2018-12-14T04:32:30.596Z,0.86
2018-12-14T04:34:59.419Z,0.92
2018-12-14T04:37:28.315Z,0.90
2018-12-14T04:39:57.233Z,0.89
2018-12-14T04:42:26.618Z,0.98
2018-12-14T04:44:55.470Z,0.98
2018-12-14T04:47:24.365Z,1.00
2018-12-14T04:49:53.530Z,0.55
2018-12-14T04:52:22.403Z,0.43
2018-12-14T04:54:51.320Z,0.34
2018-12-14T04:57:20.126Z,0.28
2018-12-14T04:59:49.049Z,0.26
2018-12-14T05:02:17.898Z,0.50
2018-12-14T05:04:46.743Z,0.65
2018-12-14T05:07:15.552Z,0.83
2018-12-14T05:09:44.391Z,0.98
2018-12-14T05:12:13.343Z,0.92
2018-12-14T05:14:42.509Z,0.81
2018-12-14T05:17:11.380Z,0.93
2018-12-14T05:19:40.212Z,1.12
2018-12-14T05:22:09.075Z,1.30
2018-12-14T05:24:37.964Z,1.38
2018-12-14T05:27:07.166Z,1.60
2018-12-14T05:29:36.060Z,1.58
2018-12-14T05:32:04.904Z,1.70
2018-12-14T05:34:33.728Z,1.71
2018-12-14T05:37:02.612Z,1.76
2018-12-14T05:39:31.476Z,1.57
2018-12-14T05:42:00.360Z,1.20
2018-12-14T05:44:29.194Z,1.29
2018-12-14T05:46:58.070Z,1.51
2018-12-14T05:49:27.073Z,1.45
2018-12-14T05:51:57.581Z,1.64
2018-12-14T05:54:26.532Z,1.78
2018-12-14T05:56:55.369Z,2.04
2018-12-14T05:59:24.208Z,2.10
2018-12-14T06:01:53.109Z,1.85
2018-12-14T06:04:21.994Z,2.08
2018-12-14T06:06:51.113Z,2.28
2018-12-14T06:09:19.959Z,2.49
2018-12-14T06:11:48.768Z,2.68
2018-12-14T06:14:17.628Z,2.68
2018-12-14T06:16:46.901Z,2.74
2018-12-14T06:19:15.740Z,2.78
2018-12-14T06:21:44.586Z,2.80
2018-12-14T06:24:14.404Z,2.76
2018-12-14T06:26:43.286Z,2.84
2018-12-14T06:29:12.108Z,2.66
2018-12-14T06:31:40.980Z,2.63
2018-12-14T06:34:09.851Z,2.66
2018-12-14T06:36:38.675Z,2.30
2018-12-14T06:39:07.682Z,1.94
2018-12-14T06:41:36.770Z,2.00
2018-12-14T06:44:05.592Z,1.75
2018-12-14T06:46:34.458Z,1.92
2018-12-14T06:49:03.271Z,2.13
2018-12-14T06:51:32.108Z,2.19
2018-12-14T06:54:00.967Z,2.07
2018-12-14T06:56:30.226Z,2.14
2018-12-14T06:58:59.037Z,2.30
2018-12-14T07:01:27.901Z,2.23
2018-12-14T07:03:56.745Z,2.50
2018-12-14T07:06:25.680Z,2.64
2018-12-14T07:08:54.541Z,2.90
2018-12-14T07:11:23.384Z,3.08
2018-12-14T07:13:52.349Z,3.24
2018-12-14T07:16:21.192Z,2.98
2018-12-14T07:18:50.170Z,2.94
2018-12-14T07:21:19.036Z,2.82
2018-12-14T07:23:47.877Z,2.76
2018-12-14T07:26:18.032Z,2.93
2018-12-14T07:28:46.891Z,3.09
2018-12-14T07:31:15.760Z,3.21
2018-12-14T07:33:44.646Z,3.29
2018-12-14T07:36:13.472Z,3.56
2018-12-14T07:38:48.109Z,3.81
2018-12-14T07:41:14.070Z,3.69
2018-12-14T07:43:42.883Z,3.83
2018-12-14T07:46:12.615Z,3.83
2018-12-14T07:48:41.436Z,4.07
2018-12-14T07:51:10.258Z,4.38
2018-12-14T07:53:39.189Z,3.83
2018-12-14T07:56:08.049Z,3.30
2018-12-14T07:58:38.697Z,3.40
2018-12-14T08:01:07.672Z,3.29
2018-12-14T08:03:36.932Z,4.03
2018-12-14T08:06:07.062Z,4.41
2018-12-14T08:08:35.887Z,4.67
2018-12-14T08:11:04.737Z,4.84
2018-12-14T08:13:34.925Z,4.95
2018-12-14T08:16:03.889Z,5.09
2018-12-14T08:18:32.699Z,4.13
2018-12-14T08:21:01.567Z,4.39
2018-12-14T08:23:30.383Z,4.93
2018-12-14T08:25:59.234Z,5.33
2018-12-14T08:28:28.126Z,5.49
2018-12-14T08:30:56.985Z,5.03
2018-12-14T08:33:25.866Z,4.70
2018-12-14T08:35:54.689Z,4.99
2018-12-14T08:38:23.543Z,4.86
2018-12-14T08:40:52.431Z,4.95
2018-12-14T08:43:21.266Z,5.55
2018-12-14T08:45:50.115Z,6.08
2018-12-14T08:48:19.046Z,6.55
2018-12-14T08:50:47.958Z,6.65
2018-12-14T08:53:17.036Z,6.61
2018-12-14T08:55:45.925Z,6.51
2018-12-14T08:58:14.787Z,6.09
2018-12-14T09:00:43.629Z,5.94
2018-12-14T09:03:12.489Z,6.30
2018-12-14T09:05:41.319Z,7.03
2018-12-14T09:08:10.163Z,7.27
2018-12-14T09:10:40.313Z,7.51
2018-12-14T09:13:09.121Z,7.08
2018-12-14T09:15:38.033Z,6.22
2018-12-14T09:18:06.873Z,6.42
2018-12-14T09:20:35.689Z,6.89
2018-12-14T09:23:04.637Z,6.93
2018-12-14T09:25:33.550Z,7.49
2018-12-14T09:28:02.380Z,7.53
2018-12-14T09:30:32.482Z,6.68
2018-12-14T09:33:01.324Z,6.43
2018-12-14T09:35:31.423Z,6.38
2018-12-14T09:38:00.277Z,6.37
2018-12-14T09:40:29.156Z,6.95
2018-12-14T09:42:57.992Z,6.70
2018-12-14T09:45:26.817Z,6.29
2018-12-14T09:47:55.661Z,6.55
2018-12-14T09:50:24.574Z,7.00
2018-12-14T09:52:54.952Z,6.93
2018-12-14T09:55:23.870Z,6.77
2018-12-14T09:57:52.736Z,7.20
2018-12-14T10:00:21.557Z,7.52
2018-12-14T10:02:50.387Z,7.67
2018-12-14T10:05:19.346Z,7.58
2018-12-14T10:07:48.256Z,7.11
2018-12-14T10:10:17.203Z,7.34
2018-12-14T10:12:46.077Z,7.88
2018-12-14T10:15:14.952Z,8.25
2018-12-14T10:17:43.785Z,8.42
2018-12-14T10:20:12.742Z,8.02
2018-12-14T10:22:41.722Z,7.80
2018-12-14T10:25:10.690Z,7.73
2018-12-14T10:27:39.620Z,7.69
2018-12-14T10:30:09.414Z,7.95
2018-12-14T10:32:38.273Z,8.05
2018-12-14T10:35:08.610Z,8.28
2018-12-14T10:37:37.751Z,8.25
2018-12-14T10:40:09.457Z,8.42
2018-12-14T10:42:38.318Z,8.63
2018-12-14T10:45:07.727Z,8.31
2018-12-14T10:47:36.903Z,8.74
2018-12-14T10:50:06.015Z,9.06
2018-12-14T10:52:34.892Z,9.15
2018-12-14T10:55:05.065Z,9.08
2018-12-14T10:57:36.000Z,9.16
2018-12-14T11:00:07.626Z,9.27
2018-12-14T11:02:37.837Z,9.28
2018-12-14T11:05:06.939Z,9.00
2018-12-14T11:07:35.790Z,8.51
2018-12-14T11:10:04.684Z,8.38
2018-12-14T11:12:33.557Z,8.51
2018-12-14T11:15:02.415Z,8.68
2018-12-14T11:17:31.240Z,8.76
2018-12-14T11:20:00.141Z,8.58
2018-12-14T11:22:28.981Z,8.61
2018-12-14T11:24:57.831Z,8.68
2018-12-14T11:27:26.850Z,8.50
2018-12-14T11:29:55.668Z,8.62
2018-12-14T11:32:24.524Z,8.61
2018-12-14T11:34:53.576Z,8.39
2018-12-14T11:37:22.588Z,8.44
2018-12-14T11:39:51.449Z,8.39
2018-12-14T11:42:20.298Z,8.37
2018-12-14T11:44:49.140Z,8.46
2018-12-14T11:47:18.446Z,8.36
2018-12-14T11:49:48.540Z,8.42
2018-12-14T11:52:17.602Z,8.33
2018-12-14T11:54:46.442Z,8.40
2018-12-14T11:57:15.388Z,8.49
2018-12-14T11:59:44.332Z,8.44
2018-12-14T12:02:13.238Z,8.44
2018-12-14T12:04:42.157Z,8.38
2018-12-14T12:07:12.368Z,8.34
2018-12-14T12:09:41.196Z,8.38
2018-12-14T12:12:10.068Z,8.42
2018-12-14T12:14:40.413Z,8.26
2018-12-14T12:17:09.249Z,8.37
2018-12-14T12:19:38.089Z,8.40
2018-12-14T12:22:06.988Z,8.41
2018-12-14T12:24:35.829Z,8.40
2018-12-14T12:27:04.660Z,8.37
2018-12-14T12:29:33.561Z,8.52
2018-12-14T12:32:02.376Z,8.55
2018-12-14T12:34:32.426Z,8.43
2018-12-14T12:37:01.233Z,8.31
2018-12-14T12:39:30.137Z,8.25
2018-12-14T12:41:58.939Z,8.19
2018-12-14T12:44:33.289Z,8.14
2018-12-14T12:46:58.696Z,8.15
2018-12-14T12:49:27.505Z,8.11
2018-12-14T12:51:57.516Z,8.00
2018-12-14T12:54:26.415Z,7.97
2018-12-14T12:56:55.320Z,7.95
2018-12-14T12:59:25.804Z,7.99
2018-12-14T13:01:55.550Z,7.96
2018-12-14T13:04:24.391Z,7.95
2018-12-14T13:06:53.225Z,7.91
2018-12-14T13:09:22.096Z,7.91
2018-12-14T13:11:50.956Z,7.95
2018-12-14T13:14:19.772Z,7.98
2018-12-14T13:16:48.661Z,7.87
2018-12-14T13:19:17.680Z,7.86
2018-12-14T13:21:46.531Z,7.80
2018-12-14T13:24:15.407Z,7.72
2018-12-14T13:26:44.332Z,7.59
2018-12-14T13:29:13.146Z,7.60
2018-12-14T13:31:42.064Z,7.61
2018-12-14T13:34:10.992Z,7.64
2018-12-14T13:36:39.836Z,7.61
2018-12-14T13:39:08.768Z,7.69
2018-12-14T13:41:37.671Z,7.71
2018-12-14T13:44:07.796Z,7.70
2018-12-14T13:46:36.664Z,7.72
2018-12-14T13:49:05.635Z,7.69
2018-12-14T13:51:34.550Z,7.72
2018-12-14T13:54:03.393Z,7.74
2018-12-14T13:56:32.228Z,7.77
2018-12-14T13:59:01.078Z,7.76
2018-12-14T14:01:30.049Z,7.82
2018-12-14T14:03:58.874Z,7.82
2018-12-14T14:06:27.700Z,7.86
2018-12-14T14:08:56.662Z,7.87
2018-12-14T14:11:25.485Z,7.80
2018-12-14T14:13:54.398Z,7.84
2018-12-14T14:16:23.317Z,7.75
2018-12-14T14:18:52.187Z,7.76
2018-12-14T14:21:21.017Z,7.81
2018-12-14T14:23:49.875Z,7.83
2018-12-14T14:26:18.706Z,7.81
2018-12-14T14:28:47.633Z,7.81
2018-12-14T14:31:17.776Z,7.85
2018-12-14T14:33:46.665Z,7.82
2018-12-14T14:36:15.646Z,7.83
2018-12-14T14:38:44.615Z,7.82
2018-12-14T14:41:13.441Z,7.86
2018-12-14T14:43:42.504Z,7.82
2018-12-14T14:46:11.353Z,7.95
2018-12-14T14:48:40.180Z,7.91
2018-12-14T14:51:09.963Z,7.96
2018-12-14T14:53:38.807Z,8.02
2018-12-14T14:56:07.696Z,7.96
2018-12-14T14:58:36.684Z,7.95
2018-12-14T15:01:05.559Z,7.97
2018-12-14T15:03:34.444Z,8.04
2018-12-14T15:06:03.425Z,8.00
2018-12-14T15:08:32.356Z,8.04
2018-12-14T15:11:01.251Z,8.00
2018-12-14T15:13:30.997Z,7.99
2018-12-14T15:16:00.007Z,7.98
2018-12-14T15:18:28.870Z,7.95
2018-12-14T15:20:57.771Z,7.94
2018-12-14T15:23:26.616Z,7.95
2018-12-14T15:25:55.477Z,7.99
2018-12-14T15:28:24.351Z,7.97
2018-12-14T15:30:53.300Z,8.01
2018-12-14T15:33:22.158Z,7.96
2018-12-14T15:35:51.041Z,7.96
2018-12-14T15:38:19.989Z,7.96
2018-12-14T15:40:48.842Z,7.99
2018-12-14T15:43:17.781Z,7.96
2018-12-14T15:45:46.678Z,8.02
2018-12-14T15:48:15.604Z,7.99
2018-12-14T15:50:44.451Z,8.12
2018-12-14T15:53:13.285Z,8.01
2018-12-14T15:55:42.130Z,7.98
2018-12-14T15:58:12.285Z,7.92
2018-12-14T16:00:41.065Z,7.93
2018-12-14T16:03:09.962Z,7.94
2018-12-14T16:05:38.955Z,7.90
2018-12-14T16:08:07.778Z,7.87
2018-12-14T16:10:36.649Z,7.84
2018-12-14T16:13:05.485Z,7.83
2018-12-14T16:15:34.352Z,7.79
2018-12-14T16:18:03.271Z,7.69
2018-12-14T16:20:32.117Z,7.74
2018-12-14T16:23:01.013Z,7.79
2018-12-14T16:25:32.415Z,7.79
2018-12-14T16:28:01.273Z,7.77
2018-12-14T16:30:31.538Z,7.80
2018-12-14T16:33:00.402Z,7.78
2018-12-14T16:35:29.275Z,7.83
2018-12-14T16:37:58.118Z,7.82
2018-12-14T16:40:26.940Z,7.84
2018-12-14T16:42:55.796Z,7.80
2018-12-14T16:45:26.553Z,7.83
2018-12-14T16:47:55.581Z,7.85
2018-12-14T16:50:25.788Z,7.87
2018-12-14T16:52:54.629Z,7.89
2018-12-14T16:55:23.472Z,7.94
2018-12-14T16:57:52.371Z,7.92
2018-12-14T17:00:21.263Z,7.97
2018-12-14T17:02:51.305Z,7.96
2018-12-14T17:05:20.213Z,8.00
2018-12-14T17:07:49.081Z,8.00
2018-12-14T17:10:17.945Z,7.98
2018-12-14T17:12:46.961Z,8.05
2018-12-14T17:15:15.808Z,8.01
2018-12-14T17:17:44.886Z,8.00
2018-12-14T17:20:15.008Z,8.00
2018-12-14T17:22:43.898Z,7.98
2018-12-14T17:25:12.742Z,7.96
2018-12-14T17:27:43.546Z,7.98
2018-12-14T17:30:13.809Z,8.02
2018-12-14T17:32:42.633Z,8.10
2018-12-14T17:35:11.446Z,8.10
2018-12-14T17:37:41.878Z,8.05
2018-12-14T17:40:11.419Z,8.07
2018-12-14T17:42:40.273Z,8.10
2018-12-14T17:45:09.208Z,8.08
2018-12-14T17:47:38.061Z,8.11
2018-12-14T17:50:07.349Z,8.14
2018-12-14T17:52:36.553Z,8.11
2018-12-14T17:55:05.453Z,8.07
2018-12-14T17:57:34.358Z,8.05
2018-12-14T18:00:03.373Z,8.03
2018-12-14T18:02:32.307Z,8.04
2018-12-14T18:05:01.164Z,7.99
2018-12-14T18:07:29.986Z,8.04
2018-12-14T18:09:58.872Z,8.02
2018-12-14T18:12:27.732Z,7.98
2018-12-14T18:14:56.605Z,7.95
2018-12-14T18:17:25.466Z,7.90
2018-12-14T18:19:54.311Z,7.85
2018-12-14T18:22:23.785Z,7.83
2018-12-14T18:24:52.857Z,7.86
2018-12-14T18:27:22.172Z,7.80
2018-12-14T18:29:51.078Z,7.90
2018-12-14T18:32:20.281Z,7.90
2018-12-14T18:34:49.173Z,7.85
2018-12-14T18:37:18.055Z,7.83
2018-12-14T18:39:48.336Z,7.83
2018-12-14T18:42:17.720Z,7.75
2018-12-14T18:44:46.593Z,7.76
2018-12-14T18:47:15.633Z,7.76
2018-12-14T18:49:44.487Z,7.86
2018-12-14T18:52:13.332Z,7.87
2018-12-14T18:54:42.278Z,7.95
2018-12-14T18:57:12.461Z,7.92
2018-12-14T18:59:41.354Z,7.91
2018-12-14T19:02:10.250Z,7.92
2018-12-14T19:04:39.089Z,7.94
2018-12-14T19:07:08.073Z,7.92
2018-12-14T19:09:37.324Z,7.98
2018-12-14T19:12:06.208Z,8.00
2018-12-14T19:14:35.663Z,8.04
2018-12-14T19:17:04.510Z,8.04
2018-12-14T19:19:33.404Z,8.09
2018-12-14T19:22:02.241Z,8.10
2018-12-14T19:24:31.249Z,8.11
2018-12-14T19:27:00.113Z,8.14
2018-12-14T19:29:28.921Z,8.15
2018-12-14T19:31:57.775Z,8.16
2018-12-14T19:34:31.370Z,8.28
2018-12-14T19:36:57.561Z,8.15
2018-12-14T19:39:26.712Z,8.11
2018-12-14T19:41:55.572Z,8.11
2018-12-14T19:44:26.021Z,8.18
2018-12-14T19:46:54.865Z,8.14
2018-12-14T19:49:23.715Z,8.22
2018-12-14T19:51:53.078Z,8.23
2018-12-14T19:54:22.152Z,8.20
2018-12-14T19:56:51.417Z,8.24
2018-12-14T19:59:20.329Z,8.24
2018-12-14T20:01:49.173Z,8.31
2018-12-14T20:04:18.037Z,8.29
2018-12-14T20:06:46.891Z,8.38
2018-12-14T20:09:15.777Z,8.37
2018-12-14T20:11:44.638Z,8.35
2018-12-14T20:14:13.532Z,8.39
2018-12-14T20:16:42.361Z,8.39
2018-12-14T20:19:11.251Z,8.36
2018-12-14T20:21:41.371Z,8.39
2018-12-14T20:24:10.262Z,8.46
2018-12-14T20:26:39.106Z,8.45
2018-12-14T20:29:07.979Z,8.51
2018-12-14T20:31:36.836Z,8.50
2018-12-14T20:34:05.682Z,8.53
2018-12-14T20:36:34.797Z,8.50
2018-12-14T20:39:05.290Z,8.55
2018-12-14T20:41:34.173Z,8.55
2018-12-14T20:44:03.038Z,8.52
2018-12-14T20:46:31.921Z,8.59
2018-12-14T20:49:00.765Z,8.56
2018-12-14T20:51:29.615Z,8.60
2018-12-14T20:53:58.648Z,8.57
2018-12-14T20:56:27.628Z,8.61
2018-12-14T20:58:56.468Z,8.60
2018-12-14T21:01:25.341Z,8.69
2018-12-14T21:03:54.195Z,8.68
2018-12-14T21:06:24.452Z,8.65
2018-12-14T21:08:53.354Z,8.62
2018-12-14T21:11:22.176Z,8.64
2018-12-14T21:13:51.021Z,8.66
2018-12-14T21:16:25.888Z,8.69
2018-12-14T21:18:52.007Z,8.73
2018-12-14T21:21:20.990Z,8.71
2018-12-14T21:23:49.870Z,8.69
2018-12-14T21:26:18.726Z,8.67
2018-12-14T21:28:47.610Z,8.65
2018-12-14T21:31:16.492Z,8.69
2018-12-14T21:33:45.362Z,8.70
2018-12-14T21:36:14.321Z,8.75
2018-12-14T21:38:43.316Z,8.73
2018-12-14T21:41:12.160Z,8.78
2018-12-14T21:43:41.085Z,8.71
2018-12-14T21:46:09.933Z,8.73
2018-12-14T21:48:38.809Z,8.74
2018-12-14T21:51:07.821Z,8.69
2018-12-14T21:53:36.672Z,8.69
2018-12-14T21:56:05.548Z,8.67
2018-12-14T21:58:34.426Z,8.70
2018-12-14T22:01:03.241Z,8.70
2018-12-14T22:03:32.217Z,8.74
2018-12-14T22:06:01.084Z,8.70
2018-12-14T22:08:29.924Z,8.71
2018-12-14T22:10:58.938Z,8.66
2018-12-14T22:13:27.788Z,8.69
2018-12-14T22:15:56.729Z,8.65
2018-12-14T22:18:25.615Z,8.66
2018-12-14T22:20:54.468Z,8.68
2018-12-14T22:23:23.433Z,8.73
2018-12-14T22:25:52.288Z,8.74
2018-12-14T22:28:21.097Z,8.73
2018-12-14T22:30:49.921Z,8.70
2018-12-14T22:33:18.794Z,8.68
2018-12-14T22:35:47.613Z,8.68
2018-12-14T22:38:16.564Z,8.67
2018-12-14T22:40:45.494Z,8.61
2018-12-14T22:43:14.301Z,8.63
2018-12-14T22:45:43.145Z,8.60
2018-12-14T22:48:11.953Z,8.58
2018-12-14T22:50:40.771Z,8.52
2018-12-14T22:53:09.592Z,8.52
2018-12-14T22:55:39.657Z,8.45
2018-12-14T22:58:08.493Z,8.48
2018-12-14T23:00:41.949Z,8.44
2018-12-14T23:03:10.765Z,8.49
2018-12-14T23:05:39.644Z,8.46
2018-12-14T23:08:08.512Z,8.49
2018-12-14T23:10:37.332Z,8.47
2018-12-14T23:13:06.240Z,8.46
2018-12-14T23:15:35.094Z,8.42
2018-12-14T23:18:03.970Z,8.39
2018-12-14T23:20:32.932Z,8.40
2018-12-14T23:23:01.789Z,8.42
2018-12-14T23:25:30.621Z,8.44
2018-12-14T23:27:59.474Z,8.47
2018-12-14T23:30:28.305Z,8.52
2018-12-14T23:32:57.174Z,8.54
2018-12-14T23:35:26.046Z,8.49
2018-12-14T23:37:54.899Z,8.52
2018-12-14T23:40:23.748Z,8.55
2018-12-14T23:42:52.682Z,8.51
2018-12-14T23:45:21.512Z,8.51
2018-12-14T23:47:50.350Z,8.54
2018-12-14T23:50:19.421Z,8.59
2018-12-14T23:52:48.265Z,8.59
2018-12-14T23:55:17.217Z,8.57
2018-12-14T23:57:46.152Z,8.57
